createdAt,value
2023-03-26T00:00:17.540Z,99898.69
2023-03-26T00:03:20.567Z,99898.31
2023-03-26T00:06:28.899Z,99900.06
2023-03-26T00:09:31.847Z,99890.81
2023-03-26T00:12:34.866Z,99886.75
2023-03-26T00:15:38.047Z,99899.22
2023-03-26T00:18:42.664Z,99895.72
2023-03-26T00:21:45.520Z,99899.22
2023-03-26T00:24:50.790Z,99892.38
2023-03-26T00:27:53.947Z,99889.53
2023-03-26T00:31:01.608Z,99891.22
2023-03-26T00:34:05.677Z,99886.19
2023-03-26T00:37:08.912Z,99898.69
2023-03-26T00:40:12.264Z,99890.84
2023-03-26T00:43:21.036Z,99894.34
2023-03-26T00:46:29.311Z,99888.78
2023-03-26T00:49:32.065Z,99898.62
2023-03-26T00:52:36.178Z,99878.56
2023-03-26T00:55:39.164Z,99873.44
2023-03-26T00:58:42.386Z,99880.50
2023-03-26T01:01:45.151Z,99871.59
2023-03-26T01:04:55.629Z,99870.38
2023-03-26T01:07:58.322Z,99871.56
2023-03-26T01:11:06.978Z,99866.63
2023-03-26T01:14:11.952Z,99866.88
2023-03-26T01:17:15.720Z,99861.56
2023-03-26T01:20:26.894Z,99863.19
2023-03-26T01:23:44.311Z,99867.12
2023-03-26T01:27:01.956Z,99869.97
2023-03-26T01:30:20.053Z,99864.00
2023-03-26T01:33:44.049Z,99863.87
2023-03-26T01:37:02.772Z,99870.19
2023-03-26T01:40:14.685Z,99863.16
2023-03-26T01:43:36.131Z,99875.19
2023-03-26T01:46:39.986Z,99882.09
2023-03-26T01:49:42.991Z,99879.47
2023-03-26T01:52:45.628Z,99875.44
2023-03-26T01:55:49.768Z,99869.09
2023-03-26T01:59:01.156Z,99879.31
2023-03-26T02:02:29.107Z,99881.00
2023-03-26T02:06:01.731Z,99882.53
2023-03-26T02:09:09.035Z,99893.13
2023-03-26T02:12:14.759Z,99899.63
2023-03-26T02:15:17.723Z,99899.63
2023-03-26T02:18:24.287Z,99901.47
2023-03-26T02:21:28.135Z,99895.50
2023-03-26T02:24:30.734Z,99898.84
2023-03-26T02:27:34.012Z,99901.63
2023-03-26T02:30:37.811Z,99901.97
2023-03-26T02:33:40.932Z,99901.31
2023-03-26T02:36:43.628Z,99890.84
2023-03-26T02:39:46.938Z,99886.94
2023-03-26T02:42:50.038Z,99892.47
2023-03-26T02:45:53.595Z,99884.38
2023-03-26T02:49:01.190Z,99880.31
2023-03-26T02:52:06.529Z,99874.31
2023-03-26T02:55:09.635Z,99875.88
2023-03-26T02:58:17.467Z,99862.28
2023-03-26T03:01:20.296Z,99862.22
2023-03-26T03:04:23.728Z,99865.63
2023-03-26T03:07:26.352Z,99878.91
2023-03-26T03:10:32.757Z,99879.06
2023-03-26T03:13:35.989Z,99881.31
2023-03-26T03:16:38.953Z,99874.25
2023-03-26T03:19:41.799Z,99873.94
2023-03-26T03:22:44.773Z,99875.59
2023-03-26T03:25:48.017Z,99884.56
2023-03-26T03:28:51.131Z,99885.66
2023-03-26T03:31:53.996Z,99884.28
2023-03-26T03:34:58.973Z,99888.13
2023-03-26T03:38:01.984Z,99874.94
2023-03-26T03:41:06.534Z,99873.75
2023-03-26T03:44:09.770Z,99872.88
2023-03-26T03:47:13.884Z,99877.94
2023-03-26T03:50:17.403Z,99886.06
2023-03-26T03:53:29.395Z,99895.81
2023-03-26T03:56:32.484Z,99898.56
2023-03-26T03:59:37.628Z,99892.81
2023-03-26T04:02:43.011Z,99889.13
2023-03-26T04:05:49.506Z,99892.75
2023-03-26T04:08:52.833Z,99893.91
2023-03-26T04:11:56.095Z,99897.53
2023-03-26T04:15:00.218Z,99911.44
2023-03-26T04:18:03.591Z,99903.66
2023-03-26T04:21:07.451Z,99913.16
2023-03-26T04:24:11.047Z,99903.75
2023-03-26T04:27:18.921Z,99901.06
2023-03-26T04:30:22.007Z,99899.34
2023-03-26T04:33:25.191Z,99895.06
2023-03-26T04:36:33.681Z,99900.44
2023-03-26T04:39:36.354Z,99896.41
2023-03-26T04:42:46.362Z,99888.72
2023-03-26T04:45:49.982Z,99894.94
2023-03-26T04:48:54.891Z,99907.81
2023-03-26T04:51:57.476Z,99907.81
2023-03-26T04:55:13.786Z,99906.94
2023-03-26T04:58:16.461Z,99904.06
2023-03-26T05:01:21.614Z,99915.06
2023-03-26T05:04:25.016Z,99915.41
2023-03-26T05:07:27.975Z,99904.25
2023-03-26T05:10:31.053Z,99896.72
2023-03-26T05:13:34.544Z,99894.22
2023-03-26T05:16:39.623Z,99895.84
2023-03-26T05:19:42.724Z,99892.06
2023-03-26T05:22:45.581Z,99895.09
2023-03-26T05:25:49.985Z,99894.81
2023-03-26T05:28:52.998Z,99889.19
2023-03-26T05:31:56.267Z,99894.66
2023-03-26T05:34:59.107Z,99902.41
2023-03-26T05:38:02.096Z,99890.22
2023-03-26T05:41:08.462Z,99895.91
2023-03-26T05:44:11.585Z,99894.28
2023-03-26T05:47:14.355Z,99892.09
2023-03-26T05:50:17.549Z,99896.88
2023-03-26T05:53:22.459Z,99902.81
2023-03-26T05:56:40.628Z,99910.13
2023-03-26T05:59:46.221Z,99906.34
2023-03-26T06:02:52.013Z,99898.06
2023-03-26T06:06:01.121Z,99907.16
2023-03-26T06:09:04.602Z,99901.31
2023-03-26T06:12:14.742Z,99894.06
2023-03-26T06:15:17.471Z,99889.94
2023-03-26T06:18:20.773Z,99897.25
2023-03-26T06:21:23.887Z,99885.28
2023-03-26T06:24:27.274Z,99897.62
2023-03-26T06:27:33.019Z,99884.00
2023-03-26T06:30:37.278Z,99886.09
2023-03-26T06:33:41.315Z,99888.63
2023-03-26T06:36:44.641Z,99886.28
2023-03-26T06:39:47.561Z,99894.50
2023-03-26T06:43:06.859Z,99898.53
2023-03-26T06:46:13.407Z,99900.44
2023-03-26T06:49:18.238Z,99893.13
2023-03-26T06:52:21.672Z,99894.69
2023-03-26T06:55:25.530Z,99899.44
2023-03-26T06:58:29.739Z,99896.16
2023-03-26T07:01:52.964Z,99894.13
2023-03-26T07:05:13.107Z,99889.97
2023-03-26T07:08:26.543Z,99899.53
2023-03-26T07:11:45.981Z,99892.59
2023-03-26T07:14:50.192Z,99881.69
2023-03-26T07:17:53.112Z,99874.31
2023-03-26T07:20:56.848Z,99884.69
2023-03-26T07:24:00.530Z,99873.56
2023-03-26T07:27:17.486Z,99882.88
2023-03-26T07:30:20.487Z,99877.34
2023-03-26T07:33:49.298Z,99882.19
2023-03-26T07:37:02.385Z,99890.16
2023-03-26T07:40:35.306Z,99895.03
2023-03-26T07:43:46.980Z,99900.34
2023-03-26T07:46:53.482Z,99896.84
2023-03-26T07:50:00.290Z,99897.25
2023-03-26T07:53:03.911Z,99891.31
2023-03-26T07:56:06.835Z,99885.97
2023-03-26T07:59:10.571Z,99905.06
2023-03-26T08:02:46.979Z,99881.13
2023-03-26T08:05:51.221Z,99893.31
2023-03-26T08:09:03.579Z,99897.69
2023-03-26T08:12:43.504Z,99897.91
2023-03-26T08:15:53.623Z,99890.28
2023-03-26T08:19:10.874Z,99906.41
2023-03-26T08:22:26.438Z,99893.31
2023-03-26T08:25:44.687Z,99887.56
2023-03-26T08:29:07.461Z,99900.06
2023-03-26T08:32:15.074Z,99894.53
2023-03-26T08:35:17.974Z,99892.66
2023-03-26T08:38:22.116Z,99898.66
2023-03-26T08:42:00.429Z,99889.16
2023-03-26T08:45:38.773Z,99883.03
2023-03-26T08:48:47.345Z,99876.41
2023-03-26T08:52:35.496Z,99897.19
2023-03-26T08:55:43.801Z,99887.16
2023-03-26T08:59:17.229Z,99876.03
2023-03-26T09:02:53.052Z,99874.50
2023-03-26T09:06:02.875Z,99871.19
2023-03-26T09:09:46.066Z,99864.78
2023-03-26T09:13:13.338Z,99867.47
2023-03-26T09:17:01.664Z,99867.38
2023-03-26T09:20:48.232Z,99863.63
2023-03-26T09:24:14.957Z,99856.25
2023-03-26T09:27:26.622Z,99859.91
2023-03-26T09:31:03.443Z,99853.75
2023-03-26T09:34:21.399Z,99850.91
2023-03-26T09:37:33.074Z,99850.09
2023-03-26T09:40:42.520Z,99843.50
2023-03-26T09:44:09.428Z,99841.66
2023-03-26T09:47:15.520Z,99838.44
2023-03-26T09:50:35.335Z,99825.47
2023-03-26T09:53:47.410Z,99825.16
2023-03-26T09:56:59.500Z,99824.81
2023-03-26T10:00:16.761Z,99817.34
2023-03-26T10:03:47.482Z,99807.91
2023-03-26T10:07:05.149Z,99796.09
2023-03-26T10:10:20.591Z,99799.25
2023-03-26T10:13:39.930Z,99797.47
2023-03-26T10:17:18.124Z,99777.50
2023-03-26T10:20:38.037Z,99769.62
2023-03-26T10:23:53.248Z,99773.25
2023-03-26T10:27:14.408Z,99768.75
2023-03-26T10:30:36.516Z,99769.78
2023-03-26T10:33:54.157Z,99768.41
2023-03-26T10:37:19.479Z,99772.97
2023-03-26T10:40:36.230Z,99768.56
2023-03-26T10:44:19.717Z,99784.12
2023-03-26T10:47:47.566Z,99760.34
2023-03-26T10:51:21.215Z,99748.91
2023-03-26T10:54:40.672Z,99754.97
2023-03-26T10:57:54.255Z,99749.47
2023-03-26T11:01:22.538Z,99755.88
2023-03-26T11:04:43.340Z,99744.81
2023-03-26T11:08:21.031Z,99721.63
2023-03-26T11:11:47.501Z,99725.16
2023-03-26T11:14:59.789Z,99714.44
2023-03-26T11:18:02.978Z,99710.66
2023-03-26T11:21:22.762Z,99708.84
2023-03-26T11:24:41.357Z,99698.53
2023-03-26T11:28:01.771Z,99687.59
2023-03-26T11:31:28.953Z,99683.56
2023-03-26T11:34:43.396Z,99687.22
2023-03-26T11:37:57.234Z,99672.25
2023-03-26T11:41:03.095Z,99668.78
2023-03-26T11:44:11.415Z,99650.00
2023-03-26T11:47:19.468Z,99653.69
2023-03-26T11:50:27.144Z,99642.25
2023-03-26T11:53:34.620Z,99641.25
2023-03-26T11:57:04.905Z,99631.75
2023-03-26T12:00:18.240Z,99636.94
2023-03-26T12:03:21.219Z,99619.69
2023-03-26T12:06:27.596Z,99592.78
2023-03-26T12:09:30.965Z,99596.25
2023-03-26T12:12:38.421Z,99597.41
2023-03-26T12:15:44.525Z,99598.78
2023-03-26T12:18:59.610Z,99580.44
2023-03-26T12:22:02.507Z,99563.88
2023-03-26T12:25:28.880Z,99570.59
2023-03-26T12:28:32.818Z,99564.66
2023-03-26T12:31:51.453Z,99555.97
2023-03-26T12:34:54.378Z,99550.25
2023-03-26T12:38:13.522Z,99549.91
2023-03-26T12:44:51.154Z,99532.38
2023-03-26T12:44:58.967Z,99523.63
2023-03-26T12:48:04.559Z,99512.25
2023-03-26T12:51:29.473Z,99522.50
2023-03-26T12:55:12.166Z,99504.28
2023-03-26T12:58:33.873Z,99504.97
2023-03-26T13:01:53.919Z,99499.72
2023-03-26T13:05:21.312Z,99489.94
2023-03-26T13:08:30.023Z,99487.56
2023-03-26T13:12:04.323Z,99485.22
2023-03-26T13:15:20.736Z,99478.03
2023-03-26T13:18:31.546Z,99464.34
2023-03-26T13:21:53.761Z,99469.03
2023-03-26T13:25:19.770Z,99464.31
2023-03-26T13:28:48.792Z,99449.94
2023-03-26T13:31:54.452Z,99436.69
2023-03-26T13:35:18.236Z,99441.06
2023-03-26T13:38:40.018Z,99430.41
2023-03-26T13:41:49.389Z,99420.22
2023-03-26T13:45:09.166Z,99426.72
2023-03-26T13:48:18.121Z,99420.91
2023-03-26T13:51:44.818Z,99410.38
2023-03-26T13:54:57.865Z,99402.09
2023-03-26T13:58:12.248Z,99414.47
2023-03-26T14:01:21.803Z,99405.87
2023-03-26T14:04:38.919Z,99389.25
2023-03-26T14:07:50.605Z,99381.47
2023-03-26T14:11:06.362Z,99382.19
2023-03-26T14:14:25.648Z,99378.34
2023-03-26T14:17:41.600Z,99379.06
2023-03-26T14:21:00.139Z,99369.91
2023-03-26T14:24:34.384Z,99366.81
2023-03-26T14:27:57.937Z,99362.75
2023-03-26T14:31:39.063Z,99351.38
2023-03-26T14:35:16.537Z,99352.09
2023-03-26T14:38:42.804Z,99354.63
2023-03-26T14:41:56.860Z,99345.81
2023-03-26T14:45:37.148Z,99328.91
2023-03-26T14:49:07.023Z,99337.81
2023-03-26T14:52:15.853Z,99324.28
2023-03-26T14:55:48.583Z,99333.94
2023-03-26T14:59:19.304Z,99331.28
2023-03-26T15:02:39.750Z,99318.19
2023-03-26T15:06:04.060Z,99306.22
2023-03-26T15:09:32.217Z,99299.59
2023-03-26T15:13:12.337Z,99299.25
2023-03-26T15:17:00.068Z,99292.63
2023-03-26T15:20:32.010Z,99286.84
2023-03-26T15:23:43.949Z,99289.47
2023-03-26T15:26:56.836Z,99282.28
2023-03-26T15:30:29.511Z,99279.63
2023-03-26T15:33:44.271Z,99270.25
2023-03-26T15:37:22.479Z,99260.00
2023-03-26T15:40:36.388Z,99253.16
2023-03-26T15:47:34.297Z,99251.81
2023-03-26T15:50:56.652Z,99247.44
2023-03-26T15:54:09.280Z,99243.88
2023-03-26T15:57:30.669Z,99244.03
2023-03-26T16:00:48.976Z,99239.81
2023-03-26T16:04:09.365Z,99227.31
2023-03-26T16:07:49.824Z,99217.47
2023-03-26T16:10:56.766Z,99221.75
2023-03-26T16:14:35.475Z,99205.81
2023-03-26T16:18:10.280Z,99194.72
2023-03-26T16:21:31.812Z,99185.72
2023-03-26T16:24:39.960Z,99185.72
2023-03-26T16:27:44.541Z,99175.72
2023-03-26T16:31:23.611Z,99178.59
2023-03-26T16:34:57.304Z,99170.59
2023-03-26T16:38:11.529Z,99168.97
2023-03-26T16:41:19.206Z,99173.22
2023-03-26T16:44:52.626Z,99170.41
2023-03-26T16:48:10.170Z,99177.13
2023-03-26T16:51:50.524Z,99176.19
2023-03-26T16:55:02.240Z,99178.75
2023-03-26T16:58:29.840Z,99175.41
2023-03-26T17:01:32.645Z,99180.06
2023-03-26T17:04:36.958Z,99179.38
2023-03-26T17:07:48.227Z,99178.34
2023-03-26T17:11:01.964Z,99179.50
2023-03-26T17:14:25.668Z,99176.22
2023-03-26T17:17:45.046Z,99177.28
2023-03-26T17:21:21.937Z,99177.97
2023-03-26T17:24:53.143Z,99177.50
2023-03-26T17:28:27.514Z,99181.16
2023-03-26T17:31:44.488Z,99182.00
2023-03-26T17:35:00.588Z,99182.25
2023-03-26T17:38:04.515Z,99181.31
2023-03-26T17:41:09.281Z,99179.38
2023-03-26T17:44:40.415Z,99177.16
2023-03-26T17:47:52.918Z,99174.19
2023-03-26T17:51:16.907Z,99181.88
2023-03-26T17:54:28.597Z,99179.38
2023-03-26T17:57:46.787Z,99176.66
2023-03-26T18:00:53.013Z,99174.41
2023-03-26T18:04:00.738Z,99177.03
2023-03-26T18:07:28.245Z,99178.66
2023-03-26T18:10:56.341Z,99179.84
2023-03-26T18:14:02.166Z,99181.97
2023-03-26T18:17:06.248Z,99172.50
2023-03-26T18:20:21.037Z,99171.75
2023-03-26T18:23:35.146Z,99176.78
2023-03-26T18:26:42.571Z,99171.56
2023-03-26T18:30:02.689Z,99165.41
2023-03-26T18:33:15.415Z,99162.19
2023-03-26T18:36:27.973Z,99163.63
2023-03-26T18:39:30.567Z,99155.09
2023-03-26T18:42:34.316Z,99146.91
2023-03-26T18:45:39.654Z,99146.31
2023-03-26T18:48:43.899Z,99144.19
2023-03-26T18:51:56.692Z,99144.53
2023-03-26T18:55:02.958Z,99137.19
2023-03-26T18:58:27.841Z,99130.41
2023-03-26T19:01:36.669Z,99120.69
2023-03-26T19:04:41.763Z,99120.12
2023-03-26T19:07:50.252Z,99108.03
2023-03-26T19:10:54.707Z,99112.62
2023-03-26T19:14:17.450Z,99099.00
2023-03-26T19:17:21.189Z,99101.16
2023-03-26T19:20:29.001Z,99090.47
2023-03-26T19:23:36.312Z,99093.44
2023-03-26T19:26:39.810Z,99094.97
2023-03-26T19:29:43.967Z,99087.37
2023-03-26T19:32:53.820Z,99079.81
2023-03-26T19:36:31.582Z,99087.37
2023-03-26T19:39:41.681Z,99075.38
2023-03-26T19:42:45.130Z,99073.38
2023-03-26T19:45:59.624Z,99051.56
2023-03-26T19:49:04.465Z,99051.53
2023-03-26T19:52:47.445Z,99049.19
2023-03-26T19:55:55.685Z,99044.41
2023-03-26T19:58:59.300Z,99033.03
2023-03-26T20:02:01.983Z,99018.66
2023-03-26T20:05:05.351Z,99013.66
2023-03-26T20:08:15.829Z,99006.69
2023-03-26T20:11:24.094Z,99000.88
2023-03-26T20:14:26.837Z,98989.91
2023-03-26T20:17:30.932Z,98984.22
2023-03-26T20:20:34.371Z,98985.41
2023-03-26T20:23:37.500Z,98987.06
2023-03-26T20:26:40.278Z,98982.06
2023-03-26T20:29:43.255Z,98973.78
2023-03-26T20:32:45.918Z,98969.53
2023-03-26T20:35:48.809Z,98960.50
2023-03-26T20:38:51.729Z,98958.84
2023-03-26T20:41:55.249Z,98955.44
2023-03-26T20:44:57.953Z,98942.16
2023-03-26T20:48:02.783Z,98944.28
2023-03-26T20:51:05.841Z,98941.22
2023-03-26T20:54:23.585Z,98936.13
2023-03-26T20:57:26.516Z,98935.09
2023-03-26T21:00:29.903Z,98934.34
2023-03-26T21:03:33.066Z,98921.91
2023-03-26T21:06:35.950Z,98916.94
2023-03-26T21:09:39.371Z,98918.47
2023-03-26T21:13:13.059Z,98911.72
2023-03-26T21:16:16.023Z,98900.16
2023-03-26T21:19:19.311Z,98901.72
2023-03-26T21:22:35.263Z,98901.34
2023-03-26T21:26:09.605Z,98919.13
2023-03-26T21:29:12.724Z,98965.63
2023-03-26T21:32:15.763Z,98967.62
2023-03-26T21:35:18.822Z,98965.72
2023-03-26T21:38:23.346Z,98957.87
2023-03-26T21:41:36.494Z,98956.72
2023-03-26T21:44:42.670Z,98960.88
2023-03-26T21:47:46.316Z,98959.31
2023-03-26T21:50:51.026Z,98958.75
2023-03-26T21:53:53.922Z,98956.44
2023-03-26T21:57:39.824Z,98957.69
2023-03-26T22:01:11.385Z,98957.34
2023-03-26T22:04:28.169Z,98967.00
2023-03-26T22:07:49.733Z,98961.34
2023-03-26T22:10:52.839Z,98958.84
2023-03-26T22:13:56.772Z,98949.41
2023-03-26T22:16:59.670Z,98951.28
2023-03-26T22:20:07.247Z,98949.00
2023-03-26T22:23:10.862Z,98936.78
2023-03-26T22:26:13.372Z,98926.06
2023-03-26T22:29:16.845Z,98927.94
2023-03-26T22:32:19.679Z,98922.34
2023-03-26T22:35:22.975Z,98922.72
2023-03-26T22:38:25.603Z,98917.94
2023-03-26T22:41:29.745Z,98921.84
2023-03-26T22:44:32.346Z,98921.00
2023-03-26T22:47:35.584Z,98929.66
2023-03-26T22:50:38.476Z,98920.66
2023-03-26T22:53:41.292Z,98911.37
2023-03-26T22:56:43.954Z,98906.31
2023-03-26T22:59:47.028Z,98903.06
2023-03-26T23:02:50.034Z,98888.84
2023-03-26T23:06:01.901Z,98885.69
2023-03-26T23:09:07.024Z,98881.09
2023-03-26T23:12:10.773Z,98879.50
2023-03-26T23:15:14.093Z,98875.25
2023-03-26T23:18:18.217Z,98877.56
2023-03-26T23:21:22.070Z,98878.41
2023-03-26T23:24:26.594Z,98870.47
2023-03-26T23:27:29.468Z,98860.19
2023-03-26T23:30:34.113Z,98855.69
2023-03-26T23:33:38.981Z,98850.06
2023-03-26T23:36:42.310Z,98854.84
2023-03-26T23:39:48.615Z,98850.59
2023-03-26T23:42:51.619Z,98853.09
2023-03-26T23:45:56.984Z,98838.59
2023-03-26T23:49:02.467Z,98835.28
2023-03-26T23:52:05.706Z,98830.09
2023-03-26T23:55:09.071Z,98818.91
2023-03-26T23:58:11.750Z,98814.69
